61TX weather

Traylor Tick Farm Airport
Bellville, Texas, United States

Public forecast

Using degrees Fahrenheit for public forecast. Weather courtesy of forecast.io.

Closest aviation weather report (METAR) to Traylor Tick Farm Airport

Closest report is Brenham Municipal Airport, 15.2 nm (28.2 km) NNW. Retrieved 2020/08/04 02:35 UTC (12 minutes ago):

K11R 040235Z AUTO 00000KT 10SM SCT075 SCT095 30/23 A2999 RMK AO2 T02960231

Closest aviation forecast (TAF) to Traylor Tick Farm Airport

Closest forecast is Easterwood Field, 37.1 nm (68.7 km) N. Retrieved 2020-08-04 00:30 UTC (2 hours ago):

TAF KCLL 032328Z 0400/0424 VRB05KT P6SM VCTS SCT070CB BKN250 TEMPO 0400/0403 VRB15KT 4SM TSRA BKN050CB FM040400 VRB05KT P6SM SCT070 BKN120 FM040600 VRB03KT P6SM FEW070 SCT250 FM042000 VRB05KT P6SM VCSH SCT070